Time;durP1;ratioP1;P1;durP2;ratioP2;P2;SDS_P1;SDS_P2;PMS_P1;PMS_P2;Temp;Humidity;BMP_temperature;BMP_pressure;BME280_temperature;BME280_humidity;BME280_pressure;Samples;Min_cycle;Max_cycle;Signal;HPM_P1;HPM_P2
2023/04/07 00:00:49;;;;;;;17.55;10.10;;;7.20;99.90;;;;;;4025659;29;20052;-86
2023/04/07 00:02:50;;;;;;;18.15;10.32;;;7.30;99.90;;;;;;4011199;29;20041;-86
2023/04/07 00:04:51;;;;;;;19.88;11.27;;;7.80;99.90;;;;;;3995681;29;20411;-85
2023/04/07 00:06:52;;;;;;;20.98;11.13;;;7.30;99.90;;;;;;4008772;29;20316;-85
2023/04/07 00:08:53;;;;;;;16.85;9.52;;;7.20;99.90;;;;;;3996032;29;20078;-85
2023/04/07 00:10:54;;;;;;;18.83;11.50;;;7.20;99.90;;;;;;3994547;29;20547;-85
2023/04/07 00:12:55;;;;;;;19.42;11.07;;;7.20;99.90;;;;;;3995741;29;20067;-85
2023/04/07 00:14:56;;;;;;;20.38;11.50;;;7.30;99.90;;;;;;3995328;29;20042;-86
2023/04/07 00:16:57;;;;;;;19.48;10.82;;;7.30;99.90;;;;;;3995677;29;20046;-86
2023/04/07 00:18:59;;;;;;;18.83;10.68;;;7.30;99.90;;;;;;3996016;29;20065;-87
2023/04/07 00:21:01;;;;;;;18.13;11.02;;;7.20;99.90;;;;;;3979465;29;20081;-86
2023/04/07 00:23:03;;;;;;;21.17;10.52;;;7.20;99.90;;;;;;3979718;29;20133;-86
2023/04/07 00:25:04;;;;;;;22.83;12.38;;;7.20;99.90;;;;;;3995664;29;20408;-86
2023/04/07 00:27:06;;;;;;;18.30;10.88;;;7.20;99.90;;;;;;4010201;29;20494;-86
2023/04/07 00:29:07;;;;;;;17.20;10.75;;;7.20;99.90;;;;;;3980073;29;20054;-87
2023/04/07 00:31:09;;;;;;;19.05;11.43;;;7.70;99.90;;;;;;4010405;29;20447;-86
2023/04/07 00:33:10;;;;;;;21.50;12.07;;;6.30;99.90;;;;;;3980551;29;20074;-87
2023/04/07 00:35:12;;;;;;;22.02;12.13;;;7.60;99.90;;;;;;3995494;29;20078;-85
2023/04/07 00:37:15;;;;;;;23.08;11.13;;;7.20;99.90;;;;;;3997093;29;20039;-86
2023/04/07 00:39:17;;;;;;;20.15;11.90;;;7.40;99.90;;;;;;3980209;29;20055;-87
2023/04/07 00:41:19;;;;;;;18.58;11.05;;;7.20;99.90;;;;;;3979204;29;20445;-87
2023/04/07 00:43:20;;;;;;;21.52;11.15;;;7.20;99.90;;;;;;3997673;29;20126;-86
2023/04/07 00:45:23;;;;;;;18.45;10.93;;;7.60;99.90;;;;;;3996534;29;20057;-87
2023/04/07 00:47:23;;;;;;;20.05;11.95;;;7.20;99.90;;;;;;3994907;29;20069;-86
2023/04/07 00:49:30;;;;;;;20.70;11.73;;;7.60;99.90;;;;;;3980118;29;20448;-87
2023/04/07 00:51:34;;;;;;;21.65;11.90;;;7.20;99.90;;;;;;3996069;29;20504;-86
2023/04/07 00:53:35;;;;;;;23.38;12.07;;;7.30;99.90;;;;;;3994514;29;20474;-86
2023/04/07 00:55:37;;;;;;;21.25;11.55;;;7.20;99.90;;;;;;3995722;29;20086;-86
2023/04/07 00:57:38;;;;;;;23.08;12.70;;;7.20;99.90;;;;;;3979158;29;20149;-86
2023/04/07 00:59:39;;;;;;;23.02;12.45;;;7.20;99.90;;;;;;4009386;29;20058;-86
2023/04/07 01:01:46;;;;;;;18.83;11.77;;;7.20;99.90;;;;;;3990229;29;20088;-86
2023/04/07 01:04:04;;;;;;;21.90;12.02;;;7.20;99.90;;;;;;4008234;29;20125;-86
2023/04/07 01:06:07;;;;;;;23.42;12.55;;;8.00;99.90;;;;;;3994142;29;20089;-86
2023/04/07 01:08:23;;;;;;;23.05;12.00;;;7.20;99.90;;;;;;3993290;29;20497;-86
2023/04/07 01:10:36;;;;;;;21.92;12.57;;;7.20;99.90;;;;;;4011145;29;20054;-86
2023/04/07 01:12:55;;;;;;;21.23;12.15;;;7.10;99.90;;;;;;4010879;29;20491;-86
2023/04/07 01:15:06;;;;;;;25.90;13.13;;;7.20;99.90;;;;;;4009284;29;20080;-87
2023/04/07 01:17:11;;;;;;;22.98;13.38;;;7.00;99.90;;;;;;4007792;29;20094;-86
2023/04/07 01:19:36;;;;;;;22.88;11.82;;;7.10;99.90;;;;;;3996095;29;20503;-86
2023/04/07 01:21:39;;;;;;;21.67;12.10;;;7.10;99.90;;;;;;3993264;29;20077;-86
2023/04/07 01:24:06;;;;;;;23.20;12.43;;;7.10;99.90;;;;;;3994123;29;20592;-85
2023/04/07 01:26:22;;;;;;;23.42;12.60;;;7.10;99.90;;;;;;3995003;29;20061;-87
2023/04/07 01:28:56;;;;;;;25.35;12.77;;;7.10;99.90;;;;;;3995543;29;20046;-87
2023/04/07 01:31:00;;;;;;;23.35;12.38;;;7.10;99.90;;;;;;3994994;29;20121;-87
2023/04/07 01:33:03;;;;;;;21.92;12.85;;;7.10;99.90;;;;;;3994740;29;20078;-87
2023/04/07 01:35:08;;;;;;;24.20;13.23;;;7.10;99.90;;;;;;3995041;29;20051;-86
2023/04/07 01:37:20;;;;;;;23.02;13.35;;;7.10;99.90;;;;;;3997004;29;20050;-86
2023/04/07 01:39:23;;;;;;;21.42;12.68;;;7.10;99.90;;;;;;3994977;29;20057;-87
2023/04/07 01:41:25;;;;;;;24.58;14.05;;;7.50;99.90;;;;;;3995119;29;20050;-86
2023/04/07 01:43:29;;;;;;;25.13;13.38;;;7.10;99.90;;;;;;3996128;29;20129;-86
2023/04/07 01:45:34;;;;;;;24.70;13.55;;;7.10;99.90;;;;;;3995287;29;20034;-87
2023/04/07 01:47:37;;;;;;;25.92;13.50;;;7.10;99.90;;;;;;3993913;29;20169;-87
2023/04/07 01:49:40;;;;;;;23.88;12.52;;;7.10;99.90;;;;;;3993269;29;20542;-87
2023/04/07 01:51:42;;;;;;;26.58;13.95;;;7.00;99.90;;;;;;3992911;29;20419;-87
2023/04/07 01:53:46;;;;;;;23.40;12.98;;;7.10;99.90;;;;;;3994936;29;20432;-88
2023/04/07 01:55:46;;;;;;;23.75;12.57;;;7.10;99.90;;;;;;3994179;29;20054;-88
2023/04/07 01:57:47;;;;;;;27.02;14.57;;;7.10;99.90;;;;;;3994493;29;20065;-87
2023/04/07 01:59:48;;;;;;;24.17;13.98;;;7.10;99.90;;;;;;3994931;29;20586;-87
2023/04/07 02:01:49;;;;;;;23.20;13.45;;;7.50;99.90;;;;;;3995470;29;20057;-87
2023/04/07 02:03:58;;;;;;;25.13;12.98;;;7.00;99.90;;;;;;4009674;29;20065;-87
2023/04/07 02:06:06;;;;;;;22.08;12.63;;;7.00;99.90;;;;;;4009152;29;20038;-87
2023/04/07 02:08:09;;;;;;;26.42;13.90;;;7.00;99.90;;;;;;4009628;29;20042;-87
2023/04/07 02:10:15;;;;;;;23.45;13.05;;;7.00;99.90;;;;;;4011438;29;20050;-87
2023/04/07 02:12:17;;;;;;;27.52;13.55;;;7.00;99.90;;;;;;3995311;29;20073;-87
2023/04/07 02:14:21;;;;;;;26.25;14.10;;;7.00;99.90;;;;;;3997788;29;20046;-87
2023/04/07 02:16:23;;;;;;;29.23;14.73;;;7.30;99.90;;;;;;4008393;29;20087;-87
2023/04/07 02:18:26;;;;;;;26.25;13.52;;;7.50;99.90;;;;;;4011141;29;20060;-86
2023/04/07 02:20:29;;;;;;;28.35;15.35;;;7.00;99.90;;;;;;4009551;29;20069;-87
2023/04/07 02:22:32;;;;;;;28.17;15.55;;;7.00;99.90;;;;;;4006093;29;20054;-86
2023/04/07 02:24:32;;;;;;;29.85;14.95;;;7.00;99.90;;;;;;4010069;29;20081;-87
2023/04/07 02:26:35;;;;;;;24.25;13.65;;;7.00;99.90;;;;;;4011745;29;20031;-88
2023/04/07 02:28:35;;;;;;;26.48;14.10;;;7.10;99.90;;;;;;3996366;29;20076;-87
2023/04/07 02:30:38;;;;;;;24.25;14.90;;;7.00;99.90;;;;;;4011342;29;20058;-87
2023/04/07 02:32:40;;;;;;;29.45;14.57;;;7.00;99.90;;;;;;4018289;29;20061;-87
2023/04/07 02:34:41;;;;;;;26.88;14.70;;;7.00;99.90;;;;;;3979011;29;20114;-87
2023/04/07 02:36:42;;;;;;;28.95;14.55;;;7.00;99.90;;;;;;3994527;29;20046;-87
2023/04/07 02:38:44;;;;;;;23.77;13.98;;;7.00;99.90;;;;;;3978499;29;20460;-87
2023/04/07 02:40:45;;;;;;;28.42;14.50;;;6.60;99.90;;;;;;3988502;29;20054;-87
2023/04/07 02:42:47;;;;;;;25.70;14.57;;;7.00;99.90;;;;;;4009392;29;20050;-87
2023/04/07 02:44:48;;;;;;;30.17;14.65;;;7.00;99.90;;;;;;3993319;29;20420;-87
2023/04/07 02:46:49;;;;;;;33.00;14.88;;;6.70;99.90;;;;;;3992614;29;20124;-86
2023/04/07 02:48:51;;;;;;;31.67;14.93;;;6.90;99.90;;;;;;4008629;29;20045;-87
2023/04/07 02:50:52;;;;;;;24.52;14.30;;;7.00;99.90;;;;;;4008936;29;20145;-86
2023/04/07 02:52:53;;;;;;;26.75;14.63;;;6.80;99.90;;;;;;3992483;29;20066;-86
2023/04/07 02:54:53;;;;;;;26.27;15.20;;;7.00;99.90;;;;;;4007422;29;20140;-86
2023/04/07 02:56:56;;;;;;;27.75;14.13;;;7.00;99.90;;;;;;4003867;29;20038;-87
2023/04/07 02:58:57;;;;;;;28.98;15.48;;;7.00;99.90;;;;;;3995480;29;20137;-86
2023/04/07 03:00:58;;;;;;;27.48;15.57;;;7.00;99.90;;;;;;4006827;29;20522;-87
2023/04/07 03:03:00;;;;;;;26.10;15.40;;;7.00;99.90;;;;;;4014418;29;20038;-87
2023/04/07 03:05:04;;;;;;;29.08;15.93;;;7.00;99.90;;;;;;4006479;29;20535;-86
2023/04/07 03:07:05;;;;;;;27.77;14.30;;;7.00;99.90;;;;;;3991408;29;20100;-86
2023/04/07 03:09:06;;;;;;;25.08;14.50;;;7.00;99.90;;;;;;3991222;29;20495;-86
2023/04/07 03:11:07;;;;;;;27.77;13.75;;;7.00;99.90;;;;;;3991051;29;20062;-86
2023/04/07 03:13:11;;;;;;;26.35;13.38;;;7.00;99.90;;;;;;4005559;29;20053;-87
2023/04/07 03:15:14;;;;;;;29.17;13.85;;;7.10;99.90;;;;;;3983459;29;20059;-86
2023/04/07 03:17:15;;;;;;;25.88;14.35;;;7.00;99.90;;;;;;3990992;29;20570;-86
2023/04/07 03:19:19;;;;;;;27.10;14.45;;;7.00;99.90;;;;;;3992491;29;20057;-87
2023/04/07 03:21:21;;;;;;;27.17;14.32;;;7.00;99.90;;;;;;3991012;29;20524;-87
2023/04/07 03:23:22;;;;;;;27.05;14.30;;;7.00;99.90;;;;;;3976052;29;20227;-86
2023/04/07 03:25:26;;;;;;;27.42;13.52;;;6.90;99.90;;;;;;3991033;29;20069;-87
2023/04/07 03:27:27;;;;;;;24.15;12.68;;;7.00;99.90;;;;;;3991530;29;20061;-86
2023/04/07 03:29:27;;;;;;;22.70;12.60;;;6.90;99.90;;;;;;3990845;29;20133;-86
2023/04/07 03:31:29;;;;;;;23.15;12.57;;;6.90;99.90;;;;;;3992442;29;20061;-87
2023/04/07 03:33:30;;;;;;;21.15;12.48;;;6.90;99.90;;;;;;3979380;29;20449;-87
2023/04/07 03:35:32;;;;;;;24.88;12.88;;;6.90;99.90;;;;;;4005280;29;20124;-87
2023/04/07 03:37:35;;;;;;;26.13;13.38;;;7.00;99.90;;;;;;3991990;29;20632;-87
2023/04/07 03:39:36;;;;;;;22.80;12.55;;;7.00;99.90;;;;;;4007651;29;20058;-87
2023/04/07 03:41:38;;;;;;;23.75;12.60;;;7.00;99.90;;;;;;4009101;29;20086;-87
2023/04/07 03:43:40;;;;;;;21.58;12.70;;;7.00;99.90;;;;;;4007270;29;20070;-87
2023/04/07 03:45:42;;;;;;;21.60;12.30;;;7.20;99.90;;;;;;4009164;29;20038;-86
2023/04/07 03:47:44;;;;;;;22.00;13.60;;;7.00;99.90;;;;;;4007940;29;20079;-87
2023/04/07 03:49:45;;;;;;;25.05;13.07;;;6.80;99.90;;;;;;4008544;29;20050;-86
2023/04/07 03:51:45;;;;;;;21.52;11.98;;;7.00;99.90;;;;;;3980954;29;20134;-87
2023/04/07 03:53:46;;;;;;;22.00;13.35;;;6.90;99.90;;;;;;3992780;29;20042;-86
2023/04/07 03:55:47;;;;;;;21.63;12.88;;;7.00;99.90;;;;;;3978456;29;20084;-85
2023/04/07 03:57:48;;;;;;;20.88;11.30;;;6.90;99.90;;;;;;3993231;29;20127;-86
2023/04/07 03:59:50;;;;;;;21.73;12.27;;;6.90;99.90;;;;;;3993392;29;20126;-87
2023/04/07 04:01:51;;;;;;;23.00;13.32;;;7.00;99.90;;;;;;3991446;29;20046;-86
2023/04/07 04:03:53;;;;;;;23.55;12.48;;;7.00;99.90;;;;;;4009539;29;20415;-86
2023/04/07 04:05:54;;;;;;;23.17;13.32;;;6.90;99.90;;;;;;4009331;29;20057;-86
2023/04/07 04:07:56;;;;;;;21.55;12.52;;;7.30;99.90;;;;;;4001872;29;20180;-86
2023/04/07 04:09:57;;;;;;;24.27;13.98;;;6.10;99.90;;;;;;4001254;29;20483;-86
2023/04/07 04:11:58;;;;;;;21.60;11.90;;;7.00;99.90;;;;;;3994144;29;20091;-87
2023/04/07 04:13:59;;;;;;;25.08;12.93;;;7.00;99.90;;;;;;3994351;29;20057;-87
2023/04/07 04:16:06;;;;;;;22.52;12.60;;;6.90;99.90;;;;;;3994900;29;20400;-87
2023/04/07 04:18:08;;;;;;;22.05;13.20;;;6.50;99.90;;;;;;3996812;29;20062;-86
2023/04/07 04:20:09;;;;;;;25.30;13.48;;;6.90;99.90;;;;;;3996551;29;20125;-86
2023/04/07 04:22:10;;;;;;;24.40;12.65;;;6.90;99.90;;;;;;3995549;29;20404;-88
2023/04/07 04:24:12;;;;;;;21.38;12.00;;;6.90;99.90;;;;;;3995701;29;20061;-87
2023/04/07 04:26:15;;;;;;;22.75;12.00;;;6.90;99.90;;;;;;3995884;29;20115;-87
2023/04/07 04:28:17;;;;;;;21.42;11.75;;;6.90;99.90;;;;;;3985389;29;20050;-87
2023/04/07 04:30:18;;;;;;;22.77;12.50;;;6.90;99.90;;;;;;3996567;29;20051;-87
2023/04/07 04:32:20;;;;;;;21.00;11.80;;;7.40;99.90;;;;;;3998956;29;20125;-87
2023/04/07 04:34:21;;;;;;;20.42;11.48;;;6.90;99.90;;;;;;3997564;29;20129;-87
2023/04/07 04:36:22;;;;;;;22.02;12.07;;;7.00;99.90;;;;;;3997554;29;20428;-87
2023/04/07 04:38:23;;;;;;;22.90;11.75;;;6.90;99.90;;;;;;3997629;29;20453;-86
2023/04/07 04:40:24;;;;;;;22.13;11.45;;;6.90;99.90;;;;;;3996590;29;20054;-87
2023/04/07 04:42:26;;;;;;;22.45;11.18;;;6.80;99.90;;;;;;3982464;29;20046;-87
2023/04/07 04:44:29;;;;;;;20.38;11.35;;;6.90;99.90;;;;;;3995119;29;20092;-85
2023/04/07 04:46:30;;;;;;;20.60;11.95;;;6.90;99.90;;;;;;4011385;29;20115;-86
2023/04/07 04:48:31;;;;;;;21.05;11.13;;;6.90;99.90;;;;;;3994693;29;20050;-86
2023/04/07 04:50:32;;;;;;;20.17;12.75;;;6.90;99.90;;;;;;3998455;29;20419;-86
2023/04/07 04:52:34;;;;;;;22.63;11.63;;;6.90;99.90;;;;;;3997448;29;20054;-86
2023/04/07 04:54:35;;;;;;;22.40;11.82;;;6.90;99.90;;;;;;3997733;29;20107;-87
2023/04/07 04:56:39;;;;;;;21.45;11.35;;;6.90;99.90;;;;;;3999769;29;20070;-87
2023/04/07 04:58:44;;;;;;;19.58;11.82;;;6.90;99.90;;;;;;3995906;29;20133;-86
2023/04/07 05:00:45;;;;;;;21.67;11.65;;;7.30;99.90;;;;;;4003005;29;20037;-86
2023/04/07 05:02:47;;;;;;;22.33;12.05;;;7.30;99.90;;;;;;3980982;29;20075;-86
2023/04/07 05:04:49;;;;;;;21.50;12.13;;;7.50;99.90;;;;;;4018717;29;20105;-86
2023/04/07 05:06:50;;;;;;;19.60;11.13;;;7.30;99.90;;;;;;4012183;29;20064;-87
2023/04/07 05:08:51;;;;;;;21.42;10.70;;;6.90;99.90;;;;;;3994001;29;20042;-86
2023/04/07 05:10:54;;;;;;;20.92;11.65;;;6.90;99.90;;;;;;3995420;29;20050;-86
2023/04/07 05:12:55;;;;;;;20.02;10.88;;;6.90;99.90;;;;;;4010446;29;20451;-87
2023/04/07 05:14:56;;;;;;;23.67;11.65;;;6.90;99.90;;;;;;3980759;29;20115;-86
2023/04/07 05:17:00;;;;;;;21.80;11.75;;;6.90;99.90;;;;;;3995914;29;20597;-86
2023/04/07 05:19:01;;;;;;;19.58;11.50;;;6.80;99.90;;;;;;3997552;29;20069;-86
2023/04/07 05:21:03;;;;;;;22.00;11.23;;;6.90;99.90;;;;;;4006888;29;20384;-86
2023/04/07 05:23:04;;;;;;;22.40;11.68;;;6.90;99.90;;;;;;4010858;29;20046;-86
2023/04/07 05:25:05;;;;;;;20.88;12.25;;;6.50;99.90;;;;;;3994986;29;20050;-86
2023/04/07 05:27:06;;;;;;;20.73;11.32;;;6.90;99.90;;;;;;3993396;29;20105;-87
2023/04/07 05:29:06;;;;;;;19.55;11.18;;;6.80;99.90;;;;;;4010114;29;20118;-85
2023/04/07 05:31:07;;;;;;;22.10;11.80;;;6.90;99.90;;;;;;4010857;29;20389;-86
2023/04/07 05:33:08;;;;;;;23.60;12.38;;;6.90;99.90;;;;;;4011028;29;20056;-87
2023/04/07 05:35:10;;;;;;;22.08;11.98;;;7.40;99.90;;;;;;4009788;29;20052;-87
2023/04/07 05:37:11;;;;;;;18.40;10.85;;;6.80;99.90;;;;;;4009521;29;20065;-87
2023/04/07 05:39:13;;;;;;;21.45;11.85;;;6.80;99.90;;;;;;3998478;29;20085;-85
2023/04/07 05:41:14;;;;;;;21.27;11.95;;;6.80;99.90;;;;;;3978879;29;20134;-86
2023/04/07 05:43:16;;;;;;;22.85;11.90;;;6.90;99.90;;;;;;3995225;29;20470;-86
2023/04/07 05:45:16;;;;;;;19.63;11.27;;;6.90;99.90;;;;;;3994300;29;20530;-86
2023/04/07 05:47:18;;;;;;;19.33;11.40;;;6.90;99.90;;;;;;3995600;29;20125;-86
2023/04/07 05:49:19;;;;;;;21.10;10.65;;;6.90;99.90;;;;;;3994894;29;20054;-86
2023/04/07 05:51:20;;;;;;;22.50;11.73;;;6.90;99.90;;;;;;3995389;29;20054;-86
2023/04/07 05:53:21;;;;;;;19.42;11.68;;;6.90;99.90;;;;;;3979586;29;20101;-86
2023/04/07 05:55:23;;;;;;;18.95;10.88;;;6.90;99.90;;;;;;3995856;29;20479;-86
2023/04/07 05:57:23;;;;;;;20.92;11.43;;;6.90;99.90;;;;;;4005489;29;20049;-86
2023/04/07 05:59:25;;;;;;;22.05;11.63;;;6.90;99.90;;;;;;4007856;29;20076;-86
2023/04/07 06:01:26;;;;;;;20.33;11.93;;;7.00;99.90;;;;;;4009460;29;20118;-86
2023/04/07 06:03:27;;;;;;;19.30;10.88;;;6.90;99.90;;;;;;3995290;29;20046;-86
2023/04/07 06:05:27;;;;;;;20.17;11.75;;;7.00;99.90;;;;;;3994659;29;20480;-86
2023/04/07 06:07:31;;;;;;;22.58;12.00;;;6.90;99.90;;;;;;4009607;29;20057;-85
2023/04/07 06:09:32;;;;;;;19.90;11.00;;;6.90;99.90;;;;;;3977941;29;20093;-85
2023/04/07 06:11:34;;;;;;;21.63;12.40;;;6.90;99.90;;;;;;3995596;29;20057;-86
2023/04/07 06:13:35;;;;;;;20.85;11.05;;;7.00;99.90;;;;;;4002425;29;20038;-87
2023/04/07 06:15:35;;;;;;;22.80;12.52;;;7.00;99.90;;;;;;3989597;29;20098;-86
2023/04/07 06:17:39;;;;;;;22.75;11.60;;;7.00;99.90;;;;;;3993470;29;20112;-87
2023/04/07 06:19:42;;;;;;;20.23;12.20;;;7.40;99.90;;;;;;3994933;29;20050;-87
2023/04/07 06:21:43;;;;;;;19.98;11.00;;;7.00;99.90;;;;;;3993758;29;20058;-86
2023/04/07 06:23:44;;;;;;;19.52;11.15;;;7.00;99.90;;;;;;3993198;29;20057;-86
2023/04/07 06:25:44;;;;;;;17.83;11.38;;;7.00;99.90;;;;;;3995463;29;20050;-86
2023/04/07 06:27:45;;;;;;;19.70;11.63;;;7.60;99.90;;;;;;3977962;29;20098;-86
2023/04/07 06:29:46;;;;;;;21.67;11.95;;;7.00;99.90;;;;;;3995313;29;20065;-86
2023/04/07 06:31:48;;;;;;;21.88;11.48;;;7.10;99.90;;;;;;3985188;29;20050;-86
2023/04/07 06:33:49;;;;;;;19.85;10.95;;;7.10;99.90;;;;;;4009522;29;20444;-87
2023/04/07 06:35:51;;;;;;;21.70;11.63;;;7.10;99.90;;;;;;4009530;29;20046;-87
2023/04/07 06:37:52;;;;;;;20.15;11.60;;;7.10;99.90;;;;;;4008417;29;20140;-86
2023/04/07 06:39:54;;;;;;;22.00;11.80;;;7.10;99.90;;;;;;3993631;29;20054;-86
2023/04/07 06:41:57;;;;;;;19.25;11.25;;;7.20;99.90;;;;;;4007774;29;20054;-86
2023/04/07 06:43:59;;;;;;;18.73;10.77;;;7.20;99.90;;;;;;3993969;29;20066;-86
2023/04/07 06:46:00;;;;;;;18.85;11.25;;;7.20;99.90;;;;;;3993947;29;20430;-86
2023/04/07 06:48:01;;;;;;;17.48;10.07;;;6.70;99.90;;;;;;3987758;29;20074;-86
2023/04/07 06:50:01;;;;;;;20.55;10.57;;;7.30;99.90;;;;;;4000972;29;20058;-86
2023/04/07 06:52:02;;;;;;;17.27;10.30;;;7.30;99.90;;;;;;4008588;29;20045;-86
2023/04/07 06:54:06;;;;;;;18.00;10.75;;;7.30;99.90;;;;;;4008587;29;20050;-85
2023/04/07 06:56:09;;;;;;;19.90;11.23;;;7.30;99.90;;;;;;4008152;29;20447;-87
2023/04/07 06:58:11;;;;;;;18.77;11.30;;;7.40;99.90;;;;;;4008812;29;20077;-87
2023/04/07 07:00:12;;;;;;;19.40;10.75;;;7.40;99.90;;;;;;3992965;29;20133;-86
2023/04/07 07:02:12;;;;;;;19.95;10.98;;;7.40;99.90;;;;;;4009679;29;20034;-86
2023/04/07 07:04:15;;;;;;;19.88;12.00;;;7.50;99.90;;;;;;4009653;29;20110;-86
2023/04/07 07:06:18;;;;;;;18.23;11.05;;;7.50;99.90;;;;;;4008160;29;20081;-87
2023/04/07 07:08:20;;;;;;;19.40;9.77;;;7.60;99.90;;;;;;4008602;29;20054;-86
2023/04/07 07:10:21;;;;;;;16.85;10.43;;;7.70;99.90;;;;;;3992259;29;20062;-87
2023/04/07 07:12:23;;;;;;;17.33;9.60;;;7.80;99.90;;;;;;3993231;29;20419;-87
2023/04/07 07:14:24;;;;;;;22.33;11.50;;;7.70;99.90;;;;;;4010023;29;20102;-87
2023/04/07 07:16:24;;;;;;;19.13;10.63;;;7.80;99.90;;;;;;4009823;29;20049;-87
2023/04/07 07:18:25;;;;;;;18.38;10.63;;;7.90;99.90;;;;;;4008710;29;20471;-85
2023/04/07 07:20:29;;;;;;;21.92;10.57;;;7.90;99.90;;;;;;4007502;29;20097;-87
2023/04/07 07:22:31;;;;;;;21.95;10.55;;;8.00;99.90;;;;;;4008872;29;20096;-86
2023/04/07 07:24:32;;;;;;;18.92;10.80;;;8.00;99.90;;;;;;4015212;29;20060;-86
2023/04/07 07:26:43;;;;;;;17.42;10.40;;;8.10;99.90;;;;;;4019438;29;20041;-86
2023/04/07 07:29:03;;;;;;;30.92;11.93;;;8.10;99.90;;;;;;4017875;29;20042;-87
2023/04/07 07:31:14;;;;;;;19.83;11.48;;;8.20;99.90;;;;;;4024836;29;20037;-87
2023/04/07 07:33:31;;;;;;;20.55;10.20;;;8.20;99.90;;;;;;4019843;29;20058;-88
2023/04/07 07:35:36;;;;;;;15.55;9.57;;;8.30;99.90;;;;;;4009095;29;20086;-91
2023/04/07 07:37:37;;;;;;;16.33;10.38;;;8.30;99.90;;;;;;4010266;29;20059;-90
2023/04/07 07:39:40;;;;;;;17.33;9.75;;;8.30;99.90;;;;;;4026113;29;20135;-89
2023/04/07 07:41:45;;;;;;;17.10;10.15;;;8.30;99.90;;;;;;4026481;29;20045;-90
2023/04/07 07:43:47;;;;;;;15.77;9.50;;;8.30;99.90;;;;;;4024976;29;20050;-89
2023/04/07 07:45:48;;;;;;;19.48;10.07;;;8.30;99.90;;;;;;4022548;29;20040;-89
2023/04/07 07:47:49;;;;;;;19.33;10.50;;;8.40;99.90;;;;;;4025774;29;20034;-89
2023/04/07 07:49:49;;;;;;;16.58;9.70;;;8.40;99.90;;;;;;4019784;29;20049;-88
2023/04/07 07:51:51;;;;;;;16.48;9.43;;;8.10;99.90;;;;;;4025524;29;20046;-87
2023/04/07 07:53:52;;;;;;;18.55;10.30;;;8.40;99.90;;;;;;4020786;29;20053;-88
2023/04/07 07:55:54;;;;;;;16.88;9.77;;;8.50;99.90;;;;;;3998447;29;20062;-88
2023/04/07 07:57:55;;;;;;;17.95;10.13;;;8.50;99.90;;;;;;4013482;29;20141;-88
2023/04/07 07:59:56;;;;;;;17.27;10.07;;;8.90;99.90;;;;;;3997755;29;20058;-88
2023/04/07 08:01:57;;;;;;;19.02;10.70;;;8.50;99.90;;;;;;4012092;29;20048;-88
2023/04/07 08:03:58;;;;;;;21.70;11.85;;;8.50;99.90;;;;;;4012995;29;20049;-88
2023/04/07 08:05:59;;;;;;;19.27;10.93;;;8.50;99.90;;;;;;4011771;29;20515;-89
2023/04/07 08:08:01;;;;;;;22.83;11.82;;;8.40;99.90;;;;;;3997124;29;20121;-89
2023/04/07 08:10:03;;;;;;;20.80;11.35;;;8.40;99.90;;;;;;4013921;29;20054;-89
2023/04/07 08:12:04;;;;;;;20.33;12.48;;;8.40;99.90;;;;;;4014499;29;20084;-88
2023/04/07 08:14:06;;;;;;;22.05;12.60;;;8.40;99.90;;;;;;3998366;29;20046;-87
2023/04/07 08:16:08;;;;;;;21.58;11.95;;;8.40;99.90;;;;;;4014023;29;20060;-86
2023/04/07 08:18:09;;;;;;;20.50;12.18;;;8.40;99.90;;;;;;4015294;29;20477;-85
2023/04/07 08:20:10;;;;;;;25.73;13.07;;;8.40;99.90;;;;;;4011621;29;20053;-84
2023/04/07 08:22:12;;;;;;;26.10;14.10;;;8.30;99.90;;;;;;3996878;29;20054;-85
2023/04/07 08:24:14;;;;;;;23.92;13.38;;;8.30;99.90;;;;;;4011966;29;20057;-85
2023/04/07 08:26:15;;;;;;;22.83;13.68;;;8.40;99.90;;;;;;4023985;29;20050;-85
2023/04/07 08:28:17;;;;;;;26.17;14.55;;;8.40;99.90;;;;;;4010418;29;20053;-85
2023/04/07 08:30:19;;;;;;;25.35;13.90;;;8.50;99.90;;;;;;4009659;29;20073;-85
2023/04/07 08:32:20;;;;;;;26.92;15.15;;;8.60;99.90;;;;;;4010626;29;20061;-85
2023/04/07 08:34:21;;;;;;;28.05;15.02;;;8.70;99.90;;;;;;3980779;29;20055;-84
2023/04/07 08:36:25;;;;;;;24.85;14.85;;;8.90;99.90;;;;;;3996144;29;20043;-85
2023/04/07 08:38:26;;;;;;;23.67;13.73;;;9.00;99.90;;;;;;3996120;29;20084;-85
2023/04/07 08:40:27;;;;;;;25.17;14.77;;;8.50;99.90;;;;;;3995376;29;20050;-84
2023/04/07 08:42:31;;;;;;;26.33;15.43;;;9.20;99.90;;;;;;4002883;29;20046;-85
2023/04/07 08:44:37;;;;;;;27.50;15.52;;;9.40;99.90;;;;;;4010933;29;20045;-83
2023/04/07 08:46:39;;;;;;;26.30;15.07;;;9.40;99.90;;;;;;4016770;29;20042;-86
2023/04/07 08:48:43;;;;;;;27.85;14.20;;;9.60;99.90;;;;;;4014405;29;20094;-84
2023/04/07 08:50:45;;;;;;;24.77;14.65;;;9.60;99.90;;;;;;4010202;29;20054;-85
2023/04/07 08:52:56;;;;;;;26.02;15.48;;;9.70;99.90;;;;;;4004527;29;20058;-85
2023/04/07 08:55:01;;;;;;;25.63;14.10;;;9.80;99.90;;;;;;4009425;29;20081;-84
2023/04/07 08:57:04;;;;;;;24.23;13.88;;;9.90;99.90;;;;;;4013456;29;20110;-84
2023/04/07 08:59:07;;;;;;;25.52;14.38;;;10.10;99.90;;;;;;4009508;29;20041;-86
2023/04/07 09:01:09;;;;;;;22.33;13.27;;;10.20;99.90;;;;;;3992602;29;20078;-85
2023/04/07 09:03:10;;;;;;;23.60;13.20;;;10.20;99.90;;;;;;4010060;29;20045;-86
2023/04/07 09:05:13;;;;;;;24.05;12.63;;;10.20;99.90;;;;;;4005156;29;20117;-84
2023/04/07 09:07:14;;;;;;;20.52;12.35;;;10.40;99.90;;;;;;4010885;29;20183;-84
2023/04/07 09:09:17;;;;;;;21.55;12.60;;;10.40;99.90;;;;;;4010990;29;20054;-84
2023/04/07 09:11:17;;;;;;;21.17;12.95;;;10.60;99.90;;;;;;4003870;29;20081;-84
2023/04/07 09:13:20;;;;;;;22.38;12.52;;;10.70;99.90;;;;;;4008953;29;20079;-85
2023/04/07 09:15:22;;;;;;;21.08;11.82;;;10.90;99.90;;;;;;4011212;29;20129;-85
2023/04/07 09:17:25;;;;;;;26.27;11.52;;;11.20;99.90;;;;;;4009213;29;20181;-85
2023/04/07 09:19:29;;;;;;;18.75;11.68;;;11.80;99.90;;;;;;3995659;29;20165;-85
2023/04/07 09:21:52;;;;;;;14.60;9.65;;;11.70;99.90;;;;;;3993466;29;20054;-84
2023/04/07 09:23:53;;;;;;;16.05;10.02;;;11.90;99.90;;;;;;4011480;29;20491;-85
2023/04/07 09:26:17;;;;;;;15.75;9.68;;;12.00;99.90;;;;;;4008597;29;20050;-85
2023/04/07 09:28:17;;;;;;;16.45;9.85;;;12.00;99.90;;;;;;3998698;29;20058;-85
2023/04/07 09:30:19;;;;;;;16.88;9.90;;;12.00;99.90;;;;;;4018710;29;20425;-87
2023/04/07 09:32:40;;;;;;;16.25;9.63;;;12.00;99.90;;;;;;4000575;29;20054;-87
2023/04/07 09:34:41;;;;;;;18.90;9.70;;;11.80;99.90;;;;;;4012527;29;20530;-85
2023/04/07 09:36:44;;;;;;;15.35;9.48;;;12.00;99.90;;;;;;4016616;29;20065;-85
2023/04/07 09:38:52;;;;;;;14.40;9.25;;;12.20;99.90;;;;;;4006877;29;20050;-85
2023/04/07 09:41:06;;;;;;;11.55;7.65;;;12.80;99.90;;;;;;3996714;29;20475;-85
2023/04/07 09:43:15;;;;;;;13.77;8.13;;;13.20;99.90;;;;;;4008677;29;20163;-85
2023/04/07 09:45:28;;;;;;;12.52;7.97;;;13.00;99.90;;;;;;3997865;29;20051;-84
2023/04/07 09:47:31;;;;;;;11.18;7.30;;;12.70;99.90;;;;;;4007282;29;20118;-85
2023/04/07 09:49:32;;;;;;;13.48;8.75;;;12.40;99.90;;;;;;4002508;29;20049;-85
2023/04/07 09:51:33;;;;;;;12.50;8.13;;;12.10;99.90;;;;;;3994562;29;20046;-84
2023/04/07 09:53:47;;;;;;;16.60;9.25;;;12.10;99.90;;;;;;4011857;29;20038;-85
2023/04/07 09:55:50;;;;;;;14.57;8.57;;;12.00;99.90;;;;;;4009214;29;20064;-85
2023/04/07 09:57:54;;;;;;;12.70;8.00;;;11.90;99.90;;;;;;4007921;29;20614;-85
2023/04/07 09:59:56;;;;;;;13.55;7.45;;;11.80;99.90;;;;;;4010279;29;20157;-85
2023/04/07 10:01:57;;;;;;;12.98;7.97;;;11.70;99.90;;;;;;4013554;29;20487;-85
2023/04/07 10:03:59;;;;;;;12.13;7.38;;;11.60;99.90;;;;;;4024899;29;20049;-84
2023/04/07 10:06:01;;;;;;;9.27;5.28;;;10.80;99.90;;;;;;4013733;29;20053;-85
2023/04/07 10:08:02;;;;;;;8.52;5.82;;;11.90;99.90;;;;;;4003007;29;20046;-84
2023/04/07 10:10:06;;;;;;;9.50;5.78;;;12.10;99.90;;;;;;4009325;29;20054;-84
2023/04/07 10:12:09;;;;;;;10.95;7.07;;;12.20;99.90;;;;;;4007623;29;20049;-84
2023/04/07 10:14:10;;;;;;;9.18;6.43;;;12.30;99.90;;;;;;4010200;29;20050;-85
2023/04/07 10:16:14;;;;;;;10.95;8.00;;;12.40;99.90;;;;;;4007742;29;20594;-85
2023/04/07 10:18:19;;;;;;;10.88;7.20;;;12.40;99.90;;;;;;4019794;29;20053;-85
2023/04/07 10:20:21;;;;;;;11.85;7.03;;;12.40;99.90;;;;;;4013007;29;20046;-85
2023/04/07 10:22:23;;;;;;;12.70;7.70;;;12.30;99.90;;;;;;4008246;29;20065;-87
2023/04/07 10:24:49;;;;;;;11.80;6.95;;;12.40;99.90;;;;;;4007533;29;20061;-86
2023/04/07 10:26:56;;;;;;;11.13;6.68;;;13.40;99.90;;;;;;4000090;29;20138;-87
2023/04/07 10:29:03;;;;;;;11.75;7.22;;;12.60;99.90;;;;;;4009678;29;20049;-84
2023/04/07 10:31:05;;;;;;;12.82;7.90;;;12.50;99.90;;;;;;3996692;29;20051;-85